Terminal Aerodrome Forecast
Issued by NWS

Home | Current Version | Previous Version | Text Only | Print | Product List | Glossary On
Versions: 1 2 3 4 5 6 7 8 9 10 11 12 13 14 15 16 17 18 19 20 21 22 23 24 25 26 27 28 29 30 31 32
000
FTUS45 KBOU 062201 AAA
TAFBJC
TAF AMD
KBJC 062201Z 0622/0718 30011KT P6SM SCT040 BKN060 OVC080
     FM062300 35009KT P6SM VCSH SCT030 BKN045 OVC060
     FM070200 04007KT 3SM -SHSN SCT020 OVC035
     FM070500 06008KT 1SM -SN BR BKN007 OVC012
     FM070700 02008KT 3/4SM -SN BR OVC005
      TEMPO 0708/0712 1/4SM SN FZFG VV004
     FM071500 35012KT 4SM -SN BR BKN009 OVC020=

USA.gov is the U.S. government's official web portal to all federal, state and local government web resources and services.